sensor_id;sensor_type;location;lat;lon;timestamp;temperature;humidity
23715;DHT22;12036;50.858;4.472;2023-05-31T00:02:20;13.90;99.90
23715;DHT22;12036;50.858;4.472;2023-05-31T00:04:45;13.90;99.90
23715;DHT22;12036;50.858;4.472;2023-05-31T00:07:11;13.90;99.90
23715;DHT22;12036;50.858;4.472;2023-05-31T00:09:36;13.80;99.90
23715;DHT22;12036;50.858;4.472;2023-05-31T00:12:02;13.80;99.90
23715;DHT22;12036;50.858;4.472;2023-05-31T00:14:28;13.80;99.90
23715;DHT22;12036;50.858;4.472;2023-05-31T00:16:53;13.80;99.90
23715;DHT22;12036;50.858;4.472;2023-05-31T00:19:19;13.80;99.90
23715;DHT22;12036;50.858;4.472;2023-05-31T00:21:45;13.80;99.90
23715;DHT22;12036;50.858;4.472;2023-05-31T00:24:12;13.80;99.90
23715;DHT22;12036;50.858;4.472;2023-05-31T00:26:38;13.60;99.90
23715;DHT22;12036;50.858;4.472;2023-05-31T00:29:03;13.60;99.90
23715;DHT22;12036;50.858;4.472;2023-05-31T00:31:29;13.60;99.90
23715;DHT22;12036;50.858;4.472;2023-05-31T00:33:55;13.60;99.90
23715;DHT22;12036;50.858;4.472;2023-05-31T00:36:22;13.50;99.90
23715;DHT22;12036;50.858;4.472;2023-05-31T00:38:48;13.50;99.90
23715;DHT22;12036;50.858;4.472;2023-05-31T00:41:14;13.40;99.90
23715;DHT22;12036;50.858;4.472;2023-05-31T00:43:40;13.40;99.90
23715;DHT22;12036;50.858;4.472;2023-05-31T00:46:07;13.40;99.90
23715;DHT22;12036;50.858;4.472;2023-05-31T00:48:34;13.30;99.90
23715;DHT22;12036;50.858;4.472;2023-05-31T00:51:01;13.30;99.90
23715;DHT22;12036;50.858;4.472;2023-05-31T00:53:27;13.30;99.90
23715;DHT22;12036;50.858;4.472;2023-05-31T00:55:53;13.30;99.90
23715;DHT22;12036;50.858;4.472;2023-05-31T00:58:19;13.20;99.90
23715;DHT22;12036;50.858;4.472;2023-05-31T01:00:45;13.20;99.90
23715;DHT22;12036;50.858;4.472;2023-05-31T01:03:11;13.10;99.90
23715;DHT22;12036;50.858;4.472;2023-05-31T01:05:38;13.20;99.90
23715;DHT22;12036;50.858;4.472;2023-05-31T01:08:04;13.10;99.90
23715;DHT22;12036;50.858;4.472;2023-05-31T01:10:29;13.10;99.90
23715;DHT22;12036;50.858;4.472;2023-05-31T01:13:29;13.10;99.90
23715;DHT22;12036;50.858;4.472;2023-05-31T01:16:05;13.00;99.90
23715;DHT22;12036;50.858;4.472;2023-05-31T01:18:46;13.00;99.90
23715;DHT22;12036;50.858;4.472;2023-05-31T01:21:16;13.00;99.90
23715;DHT22;12036;50.858;4.472;2023-05-31T01:24:31;13.00;99.90
23715;DHT22;12036;50.858;4.472;2023-05-31T01:26:55;13.00;99.90
23715;DHT22;12036;50.858;4.472;2023-05-31T01:29:26;13.00;99.90
23715;DHT22;12036;50.858;4.472;2023-05-31T01:31:53;13.00;99.90
23715;DHT22;12036;50.858;4.472;2023-05-31T01:34:20;12.90;99.90
23715;DHT22;12036;50.858;4.472;2023-05-31T01:36:46;12.90;99.90
23715;DHT22;12036;50.858;4.472;2023-05-31T01:39:12;12.90;99.90
23715;DHT22;12036;50.858;4.472;2023-05-31T01:41:40;12.90;99.90
23715;DHT22;12036;50.858;4.472;2023-05-31T01:44:08;12.90;99.90
23715;DHT22;12036;50.858;4.472;2023-05-31T01:46:34;12.90;99.90
23715;DHT22;12036;50.858;4.472;2023-05-31T01:49:01;12.80;99.90
23715;DHT22;12036;50.858;4.472;2023-05-31T01:51:28;12.80;99.90
23715;DHT22;12036;50.858;4.472;2023-05-31T01:53:56;12.80;99.90
23715;DHT22;12036;50.858;4.472;2023-05-31T01:56:23;12.70;99.90
23715;DHT22;12036;50.858;4.472;2023-05-31T01:58:50;12.80;99.90
23715;DHT22;12036;50.858;4.472;2023-05-31T02:01:17;12.70;99.90
23715;DHT22;12036;50.858;4.472;2023-05-31T02:03:43;12.60;99.90
23715;DHT22;12036;50.858;4.472;2023-05-31T02:06:09;12.70;99.90
23715;DHT22;12036;50.858;4.472;2023-05-31T02:08:39;12.70;99.90
23715;DHT22;12036;50.858;4.472;2023-05-31T02:11:06;12.60;99.90
23715;DHT22;12036;50.858;4.472;2023-05-31T02:13:32;12.60;99.90
23715;DHT22;12036;50.858;4.472;2023-05-31T02:15:58;12.60;99.90
23715;DHT22;12036;50.858;4.472;2023-05-31T02:18:24;12.60;99.90
23715;DHT22;12036;50.858;4.472;2023-05-31T02:20:53;12.50;99.90
23715;DHT22;12036;50.858;4.472;2023-05-31T02:23:20;12.50;99.90
23715;DHT22;12036;50.858;4.472;2023-05-31T02:25:46;12.40;99.90
23715;DHT22;12036;50.858;4.472;2023-05-31T02:28:13;12.40;99.90
23715;DHT22;12036;50.858;4.472;2023-05-31T02:30:39;12.30;99.90
23715;DHT22;12036;50.858;4.472;2023-05-31T02:33:05;12.40;99.90
23715;DHT22;12036;50.858;4.472;2023-05-31T02:35:32;12.30;99.90
23715;DHT22;12036;50.858;4.472;2023-05-31T02:37:58;12.30;99.90
23715;DHT22;12036;50.858;4.472;2023-05-31T02:40:24;12.30;99.90
23715;DHT22;12036;50.858;4.472;2023-05-31T02:42:50;12.30;99.90
23715;DHT22;12036;50.858;4.472;2023-05-31T02:45:15;12.30;99.90
23715;DHT22;12036;50.858;4.472;2023-05-31T02:47:41;12.30;99.90
23715;DHT22;12036;50.858;4.472;2023-05-31T02:50:08;12.20;99.90
23715;DHT22;12036;50.858;4.472;2023-05-31T02:52:35;12.20;99.90
23715;DHT22;12036;50.858;4.472;2023-05-31T02:55:01;12.20;99.90
23715;DHT22;12036;50.858;4.472;2023-05-31T02:57:26;12.10;99.90
23715;DHT22;12036;50.858;4.472;2023-05-31T02:59:56;12.10;99.90
23715;DHT22;12036;50.858;4.472;2023-05-31T03:02:22;12.00;99.90
23715;DHT22;12036;50.858;4.472;2023-05-31T03:04:48;12.00;99.90
23715;DHT22;12036;50.858;4.472;2023-05-31T03:07:14;12.00;99.90
23715;DHT22;12036;50.858;4.472;2023-05-31T03:09:40;12.00;99.90
23715;DHT22;12036;50.858;4.472;2023-05-31T03:12:06;12.00;99.90
23715;DHT22;12036;50.858;4.472;2023-05-31T03:14:32;12.00;99.90
23715;DHT22;12036;50.858;4.472;2023-05-31T03:16:57;11.90;99.90
23715;DHT22;12036;50.858;4.472;2023-05-31T03:19:23;11.90;99.90
23715;DHT22;12036;50.858;4.472;2023-05-31T03:21:49;11.90;99.90
23715;DHT22;12036;50.858;4.472;2023-05-31T03:24:14;11.90;99.90
23715;DHT22;12036;50.858;4.472;2023-05-31T03:26:40;11.80;99.90
23715;DHT22;12036;50.858;4.472;2023-05-31T03:29:06;11.80;99.90
23715;DHT22;12036;50.858;4.472;2023-05-31T03:31:31;11.80;99.90
23715;DHT22;12036;50.858;4.472;2023-05-31T03:33:58;11.90;99.90
23715;DHT22;12036;50.858;4.472;2023-05-31T03:36:24;11.80;99.90
23715;DHT22;12036;50.858;4.472;2023-05-31T03:38:49;11.80;99.90
23715;DHT22;12036;50.858;4.472;2023-05-31T03:41:15;11.90;99.90
23715;DHT22;12036;50.858;4.472;2023-05-31T03:43:41;11.90;99.90
23715;DHT22;12036;50.858;4.472;2023-05-31T03:46:06;11.90;99.90
23715;DHT22;12036;50.858;4.472;2023-05-31T03:48:32;11.80;99.90
23715;DHT22;12036;50.858;4.472;2023-05-31T03:50:58;11.80;99.90
23715;DHT22;12036;50.858;4.472;2023-05-31T03:53:23;11.90;99.90
23715;DHT22;12036;50.858;4.472;2023-05-31T03:55:49;11.90;99.90
23715;DHT22;12036;50.858;4.472;2023-05-31T03:58:14;11.90;99.90
23715;DHT22;12036;50.858;4.472;2023-05-31T04:00:40;12.00;99.90
23715;DHT22;12036;50.858;4.472;2023-05-31T04:03:07;12.00;99.90
23715;DHT22;12036;50.858;4.472;2023-05-31T04:05:33;12.00;99.90
23715;DHT22;12036;50.858;4.472;2023-05-31T04:07:59;12.00;99.90
23715;DHT22;12036;50.858;4.472;2023-05-31T04:10:27;12.00;99.90
23715;DHT22;12036;50.858;4.472;2023-05-31T04:12:53;12.00;99.90
23715;DHT22;12036;50.858;4.472;2023-05-31T04:15:18;12.10;99.90
23715;DHT22;12036;50.858;4.472;2023-05-31T04:17:44;12.10;99.90
23715;DHT22;12036;50.858;4.472;2023-05-31T04:20:11;12.20;99.90
23715;DHT22;12036;50.858;4.472;2023-05-31T04:22:37;12.20;99.90
23715;DHT22;12036;50.858;4.472;2023-05-31T04:25:03;12.20;99.90
23715;DHT22;12036;50.858;4.472;2023-05-31T04:27:29;12.40;99.90
23715;DHT22;12036;50.858;4.472;2023-05-31T04:29:55;12.40;99.90
23715;DHT22;12036;50.858;4.472;2023-05-31T04:32:26;12.40;99.90
23715;DHT22;12036;50.858;4.472;2023-05-31T04:34:53;12.50;99.90
23715;DHT22;12036;50.858;4.472;2023-05-31T04:37:25;12.60;99.90
23715;DHT22;12036;50.858;4.472;2023-05-31T04:39:52;12.60;99.90
23715;DHT22;12036;50.858;4.472;2023-05-31T04:42:18;12.70;99.90
23715;DHT22;12036;50.858;4.472;2023-05-31T04:44:44;12.80;99.90
23715;DHT22;12036;50.858;4.472;2023-05-31T04:47:10;13.60;99.90
23715;DHT22;12036;50.858;4.472;2023-05-31T04:49:36;15.00;99.90
23715;DHT22;12036;50.858;4.472;2023-05-31T04:52:02;16.30;99.90
23715;DHT22;12036;50.858;4.472;2023-05-31T04:54:28;17.10;99.90
23715;DHT22;12036;50.858;4.472;2023-05-31T04:56:54;17.20;99.90
23715;DHT22;12036;50.858;4.472;2023-05-31T04:59:19;17.40;99.90
23715;DHT22;12036;50.858;4.472;2023-05-31T05:01:46;17.30;99.90
23715;DHT22;12036;50.858;4.472;2023-05-31T05:04:12;16.90;99.90
23715;DHT22;12036;50.858;4.472;2023-05-31T05:06:37;16.70;99.90
23715;DHT22;12036;50.858;4.472;2023-05-31T05:09:05;16.70;99.90
23715;DHT22;12036;50.858;4.472;2023-05-31T05:11:31;16.80;99.90
23715;DHT22;12036;50.858;4.472;2023-05-31T05:13:56;16.90;99.90
23715;DHT22;12036;50.858;4.472;2023-05-31T05:16:22;16.90;99.90
23715;DHT22;12036;50.858;4.472;2023-05-31T05:18:48;17.30;99.90
23715;DHT22;12036;50.858;4.472;2023-05-31T05:21:13;18.30;99.90
23715;DHT22;12036;50.858;4.472;2023-05-31T05:23:39;19.70;97.40
23715;DHT22;12036;50.858;4.472;2023-05-31T05:26:05;21.00;94.60
23715;DHT22;12036;50.858;4.472;2023-05-31T05:28:31;22.10;92.40
23715;DHT22;12036;50.858;4.472;2023-05-31T05:30:56;22.90;89.80
23715;DHT22;12036;50.858;4.472;2023-05-31T05:33:22;23.50;84.90
23715;DHT22;12036;50.858;4.472;2023-05-31T05:35:48;23.20;82.70
23715;DHT22;12036;50.858;4.472;2023-05-31T05:38:13;22.70;84.20
23715;DHT22;12036;50.858;4.472;2023-05-31T05:40:39;22.20;84.20
23715;DHT22;12036;50.858;4.472;2023-05-31T05:43:05;21.70;85.70
23715;DHT22;12036;50.858;4.472;2023-05-31T05:45:31;21.70;86.30
23715;DHT22;12036;50.858;4.472;2023-05-31T05:47:57;22.50;84.60
23715;DHT22;12036;50.858;4.472;2023-05-31T05:50:22;23.00;83.30
23715;DHT22;12036;50.858;4.472;2023-05-31T05:52:48;23.00;82.30
23715;DHT22;12036;50.858;4.472;2023-05-31T05:55:14;23.50;81.60
23715;DHT22;12036;50.858;4.472;2023-05-31T05:57:40;23.70;80.50
23715;DHT22;12036;50.858;4.472;2023-05-31T06:00:06;23.20;80.90
23715;DHT22;12036;50.858;4.472;2023-05-31T06:02:39;22.20;83.20
23715;DHT22;12036;50.858;4.472;2023-05-31T06:05:06;21.30;85.80
23715;DHT22;12036;50.858;4.472;2023-05-31T06:07:32;20.80;87.20
23715;DHT22;12036;50.858;4.472;2023-05-31T06:09:58;20.30;88.50
23715;DHT22;12036;50.858;4.472;2023-05-31T06:12:25;20.00;90.80
23715;DHT22;12036;50.858;4.472;2023-05-31T06:14:51;20.10;90.70
23715;DHT22;12036;50.858;4.472;2023-05-31T06:17:17;20.20;90.00
23715;DHT22;12036;50.858;4.472;2023-05-31T06:19:42;20.10;90.40
23715;DHT22;12036;50.858;4.472;2023-05-31T06:22:08;20.10;90.90
23715;DHT22;12036;50.858;4.472;2023-05-31T06:24:34;20.60;90.80
23715;DHT22;12036;50.858;4.472;2023-05-31T06:27:00;21.90;88.00
23715;DHT22;12036;50.858;4.472;2023-05-31T06:29:28;23.20;84.80
23715;DHT22;12036;50.858;4.472;2023-05-31T06:31:53;24.90;79.10
23715;DHT22;12036;50.858;4.472;2023-05-31T06:34:21;26.30;74.50
23715;DHT22;12036;50.858;4.472;2023-05-31T06:36:47;27.10;70.40
23715;DHT22;12036;50.858;4.472;2023-05-31T06:39:12;27.80;67.00
23715;DHT22;12036;50.858;4.472;2023-05-31T06:41:38;28.10;65.70
23715;DHT22;12036;50.858;4.472;2023-05-31T06:44:03;27.70;66.10
23715;DHT22;12036;50.858;4.472;2023-05-31T06:46:29;28.00;66.00
23715;DHT22;12036;50.858;4.472;2023-05-31T06:48:55;28.50;63.60
23715;DHT22;12036;50.858;4.472;2023-05-31T06:51:21;29.20;61.50
23715;DHT22;12036;50.858;4.472;2023-05-31T06:53:49;29.80;59.80
23715;DHT22;12036;50.858;4.472;2023-05-31T06:56:15;30.00;58.30
23715;DHT22;12036;50.858;4.472;2023-05-31T06:58:41;30.30;57.60
23715;DHT22;12036;50.858;4.472;2023-05-31T07:01:07;30.70;57.40
23715;DHT22;12036;50.858;4.472;2023-05-31T07:03:33;31.00;56.40
23715;DHT22;12036;50.858;4.472;2023-05-31T07:05:58;31.00;56.80
23715;DHT22;12036;50.858;4.472;2023-05-31T07:08:24;30.60;56.20
23715;DHT22;12036;50.858;4.472;2023-05-31T07:10:50;29.40;57.30
23715;DHT22;12036;50.858;4.472;2023-05-31T07:13:16;28.00;59.40
23715;DHT22;12036;50.858;4.472;2023-05-31T07:15:41;26.70;61.30
23715;DHT22;12036;50.858;4.472;2023-05-31T07:18:07;25.70;63.40
23715;DHT22;12036;50.858;4.472;2023-05-31T07:20:32;25.20;65.00
23715;DHT22;12036;50.858;4.472;2023-05-31T07:22:58;25.40;65.50
23715;DHT22;12036;50.858;4.472;2023-05-31T07:25:24;25.70;65.40
23715;DHT22;12036;50.858;4.472;2023-05-31T07:27:50;25.20;65.20
23715;DHT22;12036;50.858;4.472;2023-05-31T07:30:15;24.50;67.00
23715;DHT22;12036;50.858;4.472;2023-05-31T07:32:41;24.00;68.10
23715;DHT22;12036;50.858;4.472;2023-05-31T07:35:07;23.60;68.40
23715;DHT22;12036;50.858;4.472;2023-05-31T07:37:32;23.00;70.20
23715;DHT22;12036;50.858;4.472;2023-05-31T07:39:58;22.50;72.70
23715;DHT22;12036;50.858;4.472;2023-05-31T07:42:24;22.00;75.20
23715;DHT22;12036;50.858;4.472;2023-05-31T07:44:50;21.80;75.40
23715;DHT22;12036;50.858;4.472;2023-05-31T07:47:16;21.70;76.30
23715;DHT22;12036;50.858;4.472;2023-05-31T07:49:42;21.30;78.10
23715;DHT22;12036;50.858;4.472;2023-05-31T07:52:07;21.30;79.30
23715;DHT22;12036;50.858;4.472;2023-05-31T07:54:33;21.80;76.90
23715;DHT22;12036;50.858;4.472;2023-05-31T07:56:59;22.00;76.60
23715;DHT22;12036;50.858;4.472;2023-05-31T07:59:25;21.90;77.70
23715;DHT22;12036;50.858;4.472;2023-05-31T08:01:51;21.90;78.00
23715;DHT22;12036;50.858;4.472;2023-05-31T08:04:16;21.40;78.90
23715;DHT22;12036;50.858;4.472;2023-05-31T08:06:42;21.00;80.70
23715;DHT22;12036;50.858;4.472;2023-05-31T08:09:08;21.00;80.60
23715;DHT22;12036;50.858;4.472;2023-05-31T08:11:35;20.80;81.20
23715;DHT22;12036;50.858;4.472;2023-05-31T08:14:04;20.50;83.30
23715;DHT22;12036;50.858;4.472;2023-05-31T08:16:30;20.40;83.60
23715;DHT22;12036;50.858;4.472;2023-05-31T08:18:56;20.40;84.10
23715;DHT22;12036;50.858;4.472;2023-05-31T08:21:22;20.50;83.70
23715;DHT22;12036;50.858;4.472;2023-05-31T08:23:48;20.30;84.20
23715;DHT22;12036;50.858;4.472;2023-05-31T08:26:13;20.30;85.00
23715;DHT22;12036;50.858;4.472;2023-05-31T08:28:39;20.30;86.10
23715;DHT22;12036;50.858;4.472;2023-05-31T08:31:06;20.40;85.00
23715;DHT22;12036;50.858;4.472;2023-05-31T08:33:32;20.40;85.40
23715;DHT22;12036;50.858;4.472;2023-05-31T08:35:58;20.40;86.20
23715;DHT22;12036;50.858;4.472;2023-05-31T08:38:27;20.40;85.70
23715;DHT22;12036;50.858;4.472;2023-05-31T08:40:53;20.50;86.10
23715;DHT22;12036;50.858;4.472;2023-05-31T08:43:21;20.50;86.20
23715;DHT22;12036;50.858;4.472;2023-05-31T08:45:50;20.50;87.70
23715;DHT22;12036;50.858;4.472;2023-05-31T08:51:03;20.80;86.70
23715;DHT22;12036;50.858;4.472;2023-05-31T08:53:33;21.40;85.40
23715;DHT22;12036;50.858;4.472;2023-05-31T08:56:00;21.80;82.70
23715;DHT22;12036;50.858;4.472;2023-05-31T08:58:27;21.80;82.10
23715;DHT22;12036;50.858;4.472;2023-05-31T09:00:54;21.70;82.90
23715;DHT22;12036;50.858;4.472;2023-05-31T09:03:20;21.70;81.40
23715;DHT22;12036;50.858;4.472;2023-05-31T09:05:47;21.50;82.30
23715;DHT22;12036;50.858;4.472;2023-05-31T09:08:13;21.40;82.90
23715;DHT22;12036;50.858;4.472;2023-05-31T09:10:40;21.40;83.70
23715;DHT22;12036;50.858;4.472;2023-05-31T09:13:06;21.50;83.20
23715;DHT22;12036;50.858;4.472;2023-05-31T09:15:33;21.60;83.40
23715;DHT22;12036;50.858;4.472;2023-05-31T09:18:15;21.70;83.40
23715;DHT22;12036;50.858;4.472;2023-05-31T09:20:42;22.00;82.40
23715;DHT22;12036;50.858;4.472;2023-05-31T09:23:08;22.20;80.40
23715;DHT22;12036;50.858;4.472;2023-05-31T09:25:48;22.10;79.70
23715;DHT22;12036;50.858;4.472;2023-05-31T09:28:16;22.10;79.00
23715;DHT22;12036;50.858;4.472;2023-05-31T09:30:42;22.10;80.40
23715;DHT22;12036;50.858;4.472;2023-05-31T09:33:07;22.10;81.80
23715;DHT22;12036;50.858;4.472;2023-05-31T09:35:33;22.20;80.20
23715;DHT22;12036;50.858;4.472;2023-05-31T09:38:06;22.20;80.60
23715;DHT22;12036;50.858;4.472;2023-05-31T09:40:33;22.70;78.30
23715;DHT22;12036;50.858;4.472;2023-05-31T09:42:59;23.00;77.30
23715;DHT22;12036;50.858;4.472;2023-05-31T09:45:26;23.20;75.60
23715;DHT22;12036;50.858;4.472;2023-05-31T09:47:53;23.30;77.10
23715;DHT22;12036;50.858;4.472;2023-05-31T09:50:21;23.70;75.50
23715;DHT22;12036;50.858;4.472;2023-05-31T09:52:48;23.90;74.50
23715;DHT22;12036;50.858;4.472;2023-05-31T09:55:16;23.80;73.40
23715;DHT22;12036;50.858;4.472;2023-05-31T09:57:44;23.70;75.10
23715;DHT22;12036;50.858;4.472;2023-05-31T10:00:15;24.00;73.80
23715;DHT22;12036;50.858;4.472;2023-05-31T10:02:45;24.20;74.20
23715;DHT22;12036;50.858;4.472;2023-05-31T10:05:12;24.70;70.80
23715;DHT22;12036;50.858;4.472;2023-05-31T10:07:43;25.30;69.70
23715;DHT22;12036;50.858;4.472;2023-05-31T10:10:10;26.10;67.60
23715;DHT22;12036;50.858;4.472;2023-05-31T10:13:00;26.80;66.20
23715;DHT22;12036;50.858;4.472;2023-05-31T10:15:27;27.90;62.60
23715;DHT22;12036;50.858;4.472;2023-05-31T10:18:07;28.40;64.00
23715;DHT22;12036;50.858;4.472;2023-05-31T10:20:49;29.60;59.50
23715;DHT22;12036;50.858;4.472;2023-05-31T10:23:20;30.00;59.30
23715;DHT22;12036;50.858;4.472;2023-05-31T10:26:14;30.50;58.00
23715;DHT22;12036;50.858;4.472;2023-05-31T10:28:54;31.10;54.80
23715;DHT22;12036;50.858;4.472;2023-05-31T10:31:23;31.40;54.00
23715;DHT22;12036;50.858;4.472;2023-05-31T10:33:54;31.60;54.10
23715;DHT22;12036;50.858;4.472;2023-05-31T10:36:23;31.70;53.30
23715;DHT22;12036;50.858;4.472;2023-05-31T10:38:57;31.90;53.00
23715;DHT22;12036;50.858;4.472;2023-05-31T10:41:28;31.60;54.10
23715;DHT22;12036;50.858;4.472;2023-05-31T10:44:05;32.20;52.10
23715;DHT22;12036;50.858;4.472;2023-05-31T10:46:34;31.90;51.80
23715;DHT22;12036;50.858;4.472;2023-05-31T10:49:02;31.90;53.20
23715;DHT22;12036;50.858;4.472;2023-05-31T10:51:41;32.10;51.20
23715;DHT22;12036;50.858;4.472;2023-05-31T10:54:07;32.10;50.60
23715;DHT22;12036;50.858;4.472;2023-05-31T10:56:36;32.70;48.80
23715;DHT22;12036;50.858;4.472;2023-05-31T10:59:05;32.40;47.50
23715;DHT22;12036;50.858;4.472;2023-05-31T11:01:35;32.40;48.20
23715;DHT22;12036;50.858;4.472;2023-05-31T11:04:01;32.10;48.20
23715;DHT22;12036;50.858;4.472;2023-05-31T11:06:31;32.10;48.80
23715;DHT22;12036;50.858;4.472;2023-05-31T11:09:02;31.80;49.20
23715;DHT22;12036;50.858;4.472;2023-05-31T11:14:04;31.60;50.00
23715;DHT22;12036;50.858;4.472;2023-05-31T11:16:33;32.30;47.80
23715;DHT22;12036;50.858;4.472;2023-05-31T11:19:06;32.40;48.20
23715;DHT22;12036;50.858;4.472;2023-05-31T11:21:52;32.00;46.60
23715;DHT22;12036;50.858;4.472;2023-05-31T11:24:32;31.90;45.80
23715;DHT22;12036;50.858;4.472;2023-05-31T11:27:03;32.20;46.40
23715;DHT22;12036;50.858;4.472;2023-05-31T11:32:18;31.70;46.70
23715;DHT22;12036;50.858;4.472;2023-05-31T11:34:58;31.90;47.20
23715;DHT22;12036;50.858;4.472;2023-05-31T11:37:29;32.30;47.00
23715;DHT22;12036;50.858;4.472;2023-05-31T11:39:59;31.80;47.50
23715;DHT22;12036;50.858;4.472;2023-05-31T11:42:29;31.60;46.70
23715;DHT22;12036;50.858;4.472;2023-05-31T11:44:56;30.90;47.90
23715;DHT22;12036;50.858;4.472;2023-05-31T11:50:17;30.00;50.00
23715;DHT22;12036;50.858;4.472;2023-05-31T11:52:43;29.40;49.00
23715;DHT22;12036;50.858;4.472;2023-05-31T11:55:09;29.10;49.30
23715;DHT22;12036;50.858;4.472;2023-05-31T11:57:42;28.50;49.80
23715;DHT22;12036;50.858;4.472;2023-05-31T12:00:10;28.20;51.10
23715;DHT22;12036;50.858;4.472;2023-05-31T12:02:41;28.00;51.90
23715;DHT22;12036;50.858;4.472;2023-05-31T12:05:14;27.80;50.30
23715;DHT22;12036;50.858;4.472;2023-05-31T12:07:41;27.60;49.80
23715;DHT22;12036;50.858;4.472;2023-05-31T12:10:07;27.50;50.50
23715;DHT22;12036;50.858;4.472;2023-05-31T12:12:35;27.40;50.60
23715;DHT22;12036;50.858;4.472;2023-05-31T12:15:01;27.30;50.60
23715;DHT22;12036;50.858;4.472;2023-05-31T12:17:31;27.20;52.00
23715;DHT22;12036;50.858;4.472;2023-05-31T12:19:57;27.10;51.00
23715;DHT22;12036;50.858;4.472;2023-05-31T12:22:23;27.10;52.40
23715;DHT22;12036;50.858;4.472;2023-05-31T12:24:49;27.10;51.60
23715;DHT22;12036;50.858;4.472;2023-05-31T12:27:26;27.20;51.50
23715;DHT22;12036;50.858;4.472;2023-05-31T12:29:56;27.20;51.30
23715;DHT22;12036;50.858;4.472;2023-05-31T12:32:22;27.20;51.10
23715;DHT22;12036;50.858;4.472;2023-05-31T12:34:53;27.00;50.60
23715;DHT22;12036;50.858;4.472;2023-05-31T12:37:36;27.00;51.00
23715;DHT22;12036;50.858;4.472;2023-05-31T12:40:15;26.90;50.90
23715;DHT22;12036;50.858;4.472;2023-05-31T12:42:41;26.90;51.60
23715;DHT22;12036;50.858;4.472;2023-05-31T12:45:08;27.00;51.50
23715;DHT22;12036;50.858;4.472;2023-05-31T12:47:34;27.00;50.90
23715;DHT22;12036;50.858;4.472;2023-05-31T12:50:08;27.10;51.10
23715;DHT22;12036;50.858;4.472;2023-05-31T12:52:35;27.00;52.10
23715;DHT22;12036;50.858;4.472;2023-05-31T12:55:01;27.10;51.70
23715;DHT22;12036;50.858;4.472;2023-05-31T12:57:27;27.20;51.70
23715;DHT22;12036;50.858;4.472;2023-05-31T13:00:04;27.20;51.80
23715;DHT22;12036;50.858;4.472;2023-05-31T13:02:33;27.20;51.40
23715;DHT22;12036;50.858;4.472;2023-05-31T13:04:59;27.10;51.60
23715;DHT22;12036;50.858;4.472;2023-05-31T13:07:25;27.10;51.40
23715;DHT22;12036;50.858;4.472;2023-05-31T13:09:51;27.10;51.00
23715;DHT22;12036;50.858;4.472;2023-05-31T13:12:16;27.10;50.80
23715;DHT22;12036;50.858;4.472;2023-05-31T13:14:43;27.20;51.80
23715;DHT22;12036;50.858;4.472;2023-05-31T13:17:09;27.20;51.40
23715;DHT22;12036;50.858;4.472;2023-05-31T13:19:35;27.20;50.80
23715;DHT22;12036;50.858;4.472;2023-05-31T13:22:02;27.20;50.70
23715;DHT22;12036;50.858;4.472;2023-05-31T13:24:28;27.20;52.10
23715;DHT22;12036;50.858;4.472;2023-05-31T13:26:54;27.20;51.20
23715;DHT22;12036;50.858;4.472;2023-05-31T13:29:19;27.10;51.30
23715;DHT22;12036;50.858;4.472;2023-05-31T13:31:48;27.30;51.80
23715;DHT22;12036;50.858;4.472;2023-05-31T13:34:13;27.40;51.20
23715;DHT22;12036;50.858;4.472;2023-05-31T13:36:39;27.40;51.10
23715;DHT22;12036;50.858;4.472;2023-05-31T13:39:05;27.40;51.20
23715;DHT22;12036;50.858;4.472;2023-05-31T13:41:31;27.30;51.60
23715;DHT22;12036;50.858;4.472;2023-05-31T13:43:56;27.40;51.40
23715;DHT22;12036;50.858;4.472;2023-05-31T13:46:22;27.40;51.80
23715;DHT22;12036;50.858;4.472;2023-05-31T13:48:49;27.30;51.70
23715;DHT22;12036;50.858;4.472;2023-05-31T13:51:15;27.40;51.30
23715;DHT22;12036;50.858;4.472;2023-05-31T13:53:41;27.50;51.70
23715;DHT22;12036;50.858;4.472;2023-05-31T13:56:07;27.60;51.20
23715;DHT22;12036;50.858;4.472;2023-05-31T13:58:37;27.50;51.60
23715;DHT22;12036;50.858;4.472;2023-05-31T14:01:04;27.60;50.50
23715;DHT22;12036;50.858;4.472;2023-05-31T14:03:32;27.50;51.00
23715;DHT22;12036;50.858;4.472;2023-05-31T14:05:58;27.40;52.00
23715;DHT22;12036;50.858;4.472;2023-05-31T14:08:24;27.30;51.60
23715;DHT22;12036;50.858;4.472;2023-05-31T14:10:49;27.30;52.10
23715;DHT22;12036;50.858;4.472;2023-05-31T14:13:15;27.30;51.80
23715;DHT22;12036;50.858;4.472;2023-05-31T14:15:41;27.30;51.40
23715;DHT22;12036;50.858;4.472;2023-05-31T14:18:07;27.30;51.20
23715;DHT22;12036;50.858;4.472;2023-05-31T14:20:33;27.30;52.10
23715;DHT22;12036;50.858;4.472;2023-05-31T14:22:59;27.10;52.20
23715;DHT22;12036;50.858;4.472;2023-05-31T14:25:25;27.10;52.00
23715;DHT22;12036;50.858;4.472;2023-05-31T14:27:50;27.20;52.10
23715;DHT22;12036;50.858;4.472;2023-05-31T14:30:16;27.30;51.90
23715;DHT22;12036;50.858;4.472;2023-05-31T14:32:41;27.40;51.80
23715;DHT22;12036;50.858;4.472;2023-05-31T14:35:08;27.30;51.60
23715;DHT22;12036;50.858;4.472;2023-05-31T14:37:35;27.30;52.30
23715;DHT22;12036;50.858;4.472;2023-05-31T14:40:01;27.40;51.90
23715;DHT22;12036;50.858;4.472;2023-05-31T14:42:26;27.40;51.50
23715;DHT22;12036;50.858;4.472;2023-05-31T14:44:52;27.40;51.40
23715;DHT22;12036;50.858;4.472;2023-05-31T14:47:18;27.40;51.70
23715;DHT22;12036;50.858;4.472;2023-05-31T14:49:43;27.30;51.90
23715;DHT22;12036;50.858;4.472;2023-05-31T14:52:09;27.20;52.70
23715;DHT22;12036;50.858;4.472;2023-05-31T14:54:34;27.30;52.30
23715;DHT22;12036;50.858;4.472;2023-05-31T14:57:00;27.30;51.70
23715;DHT22;12036;50.858;4.472;2023-05-31T14:59:31;27.30;51.70
23715;DHT22;12036;50.858;4.472;2023-05-31T15:01:57;27.20;51.70
23715;DHT22;12036;50.858;4.472;2023-05-31T15:04:26;27.30;52.00
23715;DHT22;12036;50.858;4.472;2023-05-31T15:06:52;27.20;52.30
23715;DHT22;12036;50.858;4.472;2023-05-31T15:09:18;27.20;52.00
23715;DHT22;12036;50.858;4.472;2023-05-31T15:11:45;27.20;51.90
23715;DHT22;12036;50.858;4.472;2023-05-31T15:14:12;27.00;52.30
23715;DHT22;12036;50.858;4.472;2023-05-31T15:16:38;27.10;52.80
23715;DHT22;12036;50.858;4.472;2023-05-31T15:19:03;27.00;51.90
23715;DHT22;12036;50.858;4.472;2023-05-31T15:21:29;27.00;51.60
23715;DHT22;12036;50.858;4.472;2023-05-31T15:23:55;27.00;51.80
23715;DHT22;12036;50.858;4.472;2023-05-31T15:26:20;26.90;51.70
23715;DHT22;12036;50.858;4.472;2023-05-31T15:28:48;27.00;52.90
23715;DHT22;12036;50.858;4.472;2023-05-31T15:31:13;27.00;52.30
23715;DHT22;12036;50.858;4.472;2023-05-31T15:33:39;27.00;52.20
23715;DHT22;12036;50.858;4.472;2023-05-31T15:36:06;26.90;52.00
23715;DHT22;12036;50.858;4.472;2023-05-31T15:38:32;26.90;53.10
23715;DHT22;12036;50.858;4.472;2023-05-31T15:40:58;26.90;53.80
23715;DHT22;12036;50.858;4.472;2023-05-31T15:43:24;26.90;53.30